sensor_id;sensor_type;location;lat;lon;timestamp;pressure;altitude;pressure_sealevel;temperature;humidity
13241;BME280;6687;47.790;7.322;2024-02-23T06:19:14;97308.31;;;7.01;96.78
13241;BME280;6687;47.790;7.322;2024-02-23T06:21:41;97301.50;;;6.94;96.46
13241;BME280;6687;47.790;7.322;2024-02-23T06:24:07;97302.38;;;6.94;96.36
13241;BME280;6687;47.790;7.322;2024-02-23T06:26:35;97295.50;;;6.96;96.05
13241;BME280;6687;47.790;7.322;2024-02-23T06:29:01;97297.19;;;6.97;95.45
13241;BME280;6687;47.790;7.322;2024-02-23T06:31:29;97294.75;;;6.84;94.99
13241;BME280;6687;47.790;7.322;2024-02-23T06:33:56;97304.13;;;6.92;95.43
13241;BME280;6687;47.790;7.322;2024-02-23T06:36:24;97313.47;;;6.98;95.20
13241;BME280;6687;47.790;7.322;2024-02-23T06:38:50;97310.72;;;7.15;93.83
13241;BME280;6687;47.790;7.322;2024-02-23T06:41:17;97319.22;;;7.23;92.13
13241;BME280;6687;47.790;7.322;2024-02-23T06:43:44;97317.47;;;7.28;91.00
13241;BME280;6687;47.790;7.322;2024-02-23T06:46:11;97313.97;;;7.32;89.71
13241;BME280;6687;47.790;7.322;2024-02-23T06:48:38;97313.94;;;7.34;88.58
13241;BME280;6687;47.790;7.322;2024-02-23T06:51:05;97326.81;;;7.35;88.82
13241;BME280;6687;47.790;7.322;2024-02-23T06:53:36;97327.63;;;7.37;87.41
13241;BME280;6687;47.790;7.322;2024-02-23T06:56:03;97331.94;;;7.35;87.56
13241;BME280;6687;47.790;7.322;2024-02-23T06:58:30;97332.03;;;7.29;88.31
13241;BME280;6687;47.790;7.322;2024-02-23T07:00:57;97335.38;;;7.36;87.82
13241;BME280;6687;47.790;7.322;2024-02-23T07:03:24;97334.59;;;7.32;87.91
13241;BME280;6687;47.790;7.322;2024-02-23T07:05:50;97339.75;;;7.29;88.12
13241;BME280;6687;47.790;7.322;2024-02-23T07:08:17;97332.88;;;7.30;88.37
13241;BME280;6687;47.790;7.322;2024-02-23T07:10:46;97334.53;;;7.34;88.15
13241;BME280;6687;47.790;7.322;2024-02-23T07:13:12;97335.50;;;7.27;88.41
13241;BME280;6687;47.790;7.322;2024-02-23T07:15:39;97340.59;;;7.31;89.47
13241;BME280;6687;47.790;7.322;2024-02-23T07:18:06;97338.06;;;7.28;89.06
13241;BME280;6687;47.790;7.322;2024-02-23T07:20:35;97354.34;;;7.30;89.37
13241;BME280;6687;47.790;7.322;2024-02-23T07:23:02;97347.56;;;7.23;89.61
13241;BME280;6687;47.790;7.322;2024-02-23T07:25:28;97343.94;;;7.38;88.63
13241;BME280;6687;47.790;7.322;2024-02-23T07:27:56;97341.47;;;7.30;89.18
13241;BME280;6687;47.790;7.322;2024-02-23T07:30:23;97343.97;;;7.36;88.28
13241;BME280;6687;47.790;7.322;2024-02-23T07:32:50;97341.56;;;7.24;88.51
13241;BME280;6687;47.790;7.322;2024-02-23T07:35:17;97344.75;;;7.45;88.47
13241;BME280;6687;47.790;7.322;2024-02-23T07:37:43;97353.38;;;7.42;87.35
13241;BME280;6687;47.790;7.322;2024-02-23T07:40:11;97357.53;;;7.51;87.13
13241;BME280;6687;47.790;7.322;2024-02-23T07:42:38;97348.31;;;7.31;86.46
13241;BME280;6687;47.790;7.322;2024-02-23T07:45:07;97349.00;;;7.47;86.87
13241;BME280;6687;47.790;7.322;2024-02-23T07:47:34;97346.44;;;7.46;86.69
13241;BME280;6687;47.790;7.322;2024-02-23T07:50:01;97342.03;;;7.54;86.85
13241;BME280;6687;47.790;7.322;2024-02-23T07:52:28;97351.50;;;7.52;86.68
13241;BME280;6687;47.790;7.322;2024-02-23T07:54:54;97344.69;;;7.48;86.99
13241;BME280;6687;47.790;7.322;2024-02-23T07:57:21;97346.22;;;7.63;87.04
13241;BME280;6687;47.790;7.322;2024-02-23T07:59:48;97359.06;;;7.66;86.77
13241;BME280;6687;47.790;7.322;2024-02-23T08:02:16;97363.38;;;7.65;86.38
13241;BME280;6687;47.790;7.322;2024-02-23T08:04:42;97350.50;;;7.65;86.33
13241;BME280;6687;47.790;7.322;2024-02-23T08:07:09;97347.97;;;7.62;86.94
13241;BME280;6687;47.790;7.322;2024-02-23T08:09:36;97338.97;;;7.94;85.76
13241;BME280;6687;47.790;7.322;2024-02-23T08:12:04;97344.22;;;7.85;85.51
13241;BME280;6687;47.790;7.322;2024-02-23T08:14:30;97352.69;;;7.96;85.44
13241;BME280;6687;47.790;7.322;2024-02-23T08:16:58;97351.03;;;7.89;85.12
13241;BME280;6687;47.790;7.322;2024-02-23T08:19:26;97348.19;;;8.07;85.00
13241;BME280;6687;47.790;7.322;2024-02-23T08:21:53;97350.94;;;7.98;85.14
13241;BME280;6687;47.790;7.322;2024-02-23T08:24:19;97348.09;;;8.13;84.96
13241;BME280;6687;47.790;7.322;2024-02-23T08:26:46;97350.75;;;8.10;82.89
13241;BME280;6687;47.790;7.322;2024-02-23T08:29:13;97348.00;;;8.21;84.03
13241;BME280;6687;47.790;7.322;2024-02-23T08:31:40;97342.19;;;8.08;84.30
13241;BME280;6687;47.790;7.322;2024-02-23T08:34:06;97342.00;;;8.21;84.01
13241;BME280;6687;47.790;7.322;2024-02-23T08:36:34;97342.84;;;8.20;83.50
13241;BME280;6687;47.790;7.322;2024-02-23T08:39:01;97337.56;;;8.30;84.21
13241;BME280;6687;47.790;7.322;2024-02-23T08:41:28;97336.09;;;8.14;84.70
13241;BME280;6687;47.790;7.322;2024-02-23T08:43:55;97333.41;;;8.22;84.83
13241;BME280;6687;47.790;7.322;2024-02-23T08:46:21;97342.03;;;8.17;85.47
13241;BME280;6687;47.790;7.322;2024-02-23T08:48:48;97335.81;;;8.32;84.82
13241;BME280;6687;47.790;7.322;2024-02-23T08:51:15;97331.59;;;8.27;84.79
13241;BME280;6687;47.790;7.322;2024-02-23T08:53:43;97328.78;;;8.44;84.57
13241;BME280;6687;47.790;7.322;2024-02-23T08:56:11;97330.72;;;8.28;84.47
13241;BME280;6687;47.790;7.322;2024-02-23T08:58:37;97324.63;;;8.32;85.25
13241;BME280;6687;47.790;7.322;2024-02-23T09:01:04;97319.19;;;8.50;84.86
13241;BME280;6687;47.790;7.322;2024-02-23T09:03:31;97309.41;;;8.13;84.38
13241;BME280;6687;47.790;7.322;2024-02-23T09:05:58;97310.53;;;8.54;85.49
13241;BME280;6687;47.790;7.322;2024-02-23T09:08:24;97304.34;;;8.63;85.02
13241;BME280;6687;47.790;7.322;2024-02-23T09:10:52;97298.72;;;8.38;85.33
13241;BME280;6687;47.790;7.322;2024-02-23T09:13:19;97291.19;;;8.26;83.20
13241;BME280;6687;47.790;7.322;2024-02-23T09:15:46;97298.34;;;8.63;85.17
13241;BME280;6687;47.790;7.322;2024-02-23T09:18:12;97290.16;;;8.36;84.15
13241;BME280;6687;47.790;7.322;2024-02-23T09:20:39;97286.63;;;8.43;84.92
13241;BME280;6687;47.790;7.322;2024-02-23T09:23:06;97288.13;;;8.56;85.15
13241;BME280;6687;47.790;7.322;2024-02-23T09:25:32;97285.19;;;8.76;85.92
13241;BME280;6687;47.790;7.322;2024-02-23T09:28:01;97279.13;;;8.28;81.88
13241;BME280;6687;47.790;7.322;2024-02-23T09:30:28;97280.59;;;7.88;77.34
13241;BME280;6687;47.790;7.322;2024-02-23T09:32:54;97270.81;;;8.09;77.88
13241;BME280;6687;47.790;7.322;2024-02-23T09:35:21;97282.69;;;8.72;84.15
13241;BME280;6687;47.790;7.322;2024-02-23T09:37:48;97267.44;;;8.60;83.30
13241;BME280;6687;47.790;7.322;2024-02-23T09:40:15;97269.19;;;8.58;81.27
13241;BME280;6687;47.790;7.322;2024-02-23T09:42:42;97277.66;;;8.66;83.39
13241;BME280;6687;47.790;7.322;2024-02-23T09:45:11;97272.97;;;8.35;80.42
13241;BME280;6687;47.790;7.322;2024-02-23T09:47:40;97269.34;;;8.48;79.08
13241;BME280;6687;47.790;7.322;2024-02-23T09:50:09;97263.94;;;8.62;81.14
13241;BME280;6687;47.790;7.322;2024-02-23T09:52:36;97260.41;;;8.68;81.63
13241;BME280;6687;47.790;7.322;2024-02-23T09:55:03;97260.03;;;8.38;80.81
13241;BME280;6687;47.790;7.322;2024-02-23T09:57:30;97257.00;;;8.64;79.72
13241;BME280;6687;47.790;7.322;2024-02-23T09:59:57;97253.59;;;8.62;81.98
13241;BME280;6687;47.790;7.322;2024-02-23T10:02:25;97252.19;;;8.91;83.77
13241;BME280;6687;47.790;7.322;2024-02-23T10:04:54;97251.88;;;8.63;77.94
13241;BME280;6687;47.790;7.322;2024-02-23T10:07:23;97240.31;;;8.82;80.07
13241;BME280;6687;47.790;7.322;2024-02-23T10:09:52;97241.56;;;8.61;77.81
13241;BME280;6687;47.790;7.322;2024-02-23T10:12:19;97241.38;;;8.72;79.38
13241;BME280;6687;47.790;7.322;2024-02-23T10:14:45;97241.16;;;8.84;79.69
13241;BME280;6687;47.790;7.322;2024-02-23T10:17:12;97240.19;;;8.90;80.49
13241;BME280;6687;47.790;7.322;2024-02-23T10:19:40;97236.09;;;9.23;84.10
13241;BME280;6687;47.790;7.322;2024-02-23T10:22:07;97237.13;;;9.13;82.94
13241;BME280;6687;47.790;7.322;2024-02-23T10:24:34;97230.28;;;9.12;82.10
13241;BME280;6687;47.790;7.322;2024-02-23T10:27:00;97228.94;;;9.34;83.86
13241;BME280;6687;47.790;7.322;2024-02-23T10:29:27;97223.47;;;9.08;79.83
13241;BME280;6687;47.790;7.322;2024-02-23T10:31:56;97233.28;;;9.32;81.86
13241;BME280;6687;47.790;7.322;2024-02-23T10:34:24;97233.53;;;9.20;80.56
13241;BME280;6687;47.790;7.322;2024-02-23T10:36:52;97232.88;;;9.51;84.27
13241;BME280;6687;47.790;7.322;2024-02-23T10:39:24;97233.25;;;8.92;73.45
13241;BME280;6687;47.790;7.322;2024-02-23T10:41:56;97229.63;;;9.01;70.00
13241;BME280;6687;47.790;7.322;2024-02-23T10:44:23;97242.00;;;9.69;83.36
13241;BME280;6687;47.790;7.322;2024-02-23T10:46:52;97235.56;;;9.06;71.69
13241;BME280;6687;47.790;7.322;2024-02-23T10:49:20;97240.03;;;9.40;77.34
13241;BME280;6687;47.790;7.322;2024-02-23T10:51:53;97231.88;;;9.58;73.78
13241;BME280;6687;47.790;7.322;2024-02-23T10:54:20;97228.41;;;9.59;71.76
13241;BME280;6687;47.790;7.322;2024-02-23T10:56:49;97221.72;;;9.88;76.33
13241;BME280;6687;47.790;7.322;2024-02-23T10:59:17;97218.25;;;9.89;75.27
13241;BME280;6687;47.790;7.322;2024-02-23T11:01:45;97213.41;;;10.11;78.44
13241;BME280;6687;47.790;7.322;2024-02-23T11:04:15;97219.63;;;10.40;79.86
13241;BME280;6687;47.790;7.322;2024-02-23T11:06:42;97216.31;;;10.34;78.62
13241;BME280;6687;47.790;7.322;2024-02-23T11:09:12;97217.72;;;10.10;67.94
13241;BME280;6687;47.790;7.322;2024-02-23T11:11:39;97212.38;;;10.16;70.07
13241;BME280;6687;47.790;7.322;2024-02-23T11:14:07;97212.47;;;10.49;73.25
13241;BME280;6687;47.790;7.322;2024-02-23T11:16:38;97211.09;;;10.69;75.04
13241;BME280;6687;47.790;7.322;2024-02-23T11:19:06;97213.28;;;10.51;76.25
13241;BME280;6687;47.790;7.322;2024-02-23T11:21:35;97210.38;;;10.28;67.49
13241;BME280;6687;47.790;7.322;2024-02-23T11:24:03;97206.81;;;10.66;76.32
13241;BME280;6687;47.790;7.322;2024-02-23T11:26:31;97201.44;;;10.74;75.76
13241;BME280;6687;47.790;7.322;2024-02-23T11:28:59;97201.72;;;10.63;73.18
13241;BME280;6687;47.790;7.322;2024-02-23T11:31:29;97199.28;;;10.59;72.17
13241;BME280;6687;47.790;7.322;2024-02-23T11:33:57;97201.69;;;10.65;74.08
13241;BME280;6687;47.790;7.322;2024-02-23T11:36:24;97198.09;;;10.38;70.24
13241;BME280;6687;47.790;7.322;2024-02-23T11:38:54;97200.63;;;10.72;75.98
13241;BME280;6687;47.790;7.322;2024-02-23T11:41:22;97192.50;;;10.54;72.54
13241;BME280;6687;47.790;7.322;2024-02-23T11:43:51;97192.13;;;10.68;69.82
13241;BME280;6687;47.790;7.322;2024-02-23T11:46:18;97193.47;;;10.82;77.20
13241;BME280;6687;47.790;7.322;2024-02-23T11:48:45;97193.66;;;10.74;69.67
13241;BME280;6687;47.790;7.322;2024-02-23T11:51:18;97192.69;;;10.47;68.33
13241;BME280;6687;47.790;7.322;2024-02-23T11:53:45;97187.53;;;10.11;60.40
13241;BME280;6687;47.790;7.322;2024-02-23T11:56:13;97191.50;;;10.59;69.85
13241;BME280;6687;47.790;7.322;2024-02-23T11:58:40;97189.38;;;10.73;73.73
13241;BME280;6687;47.790;7.322;2024-02-23T12:01:08;97186.06;;;10.37;61.61
13241;BME280;6687;47.790;7.322;2024-02-23T12:03:35;97186.81;;;10.73;71.02
13241;BME280;6687;47.790;7.322;2024-02-23T12:06:03;97183.72;;;10.90;73.24
13241;BME280;6687;47.790;7.322;2024-02-23T12:08:31;97181.63;;;10.73;66.35
13241;BME280;6687;47.790;7.322;2024-02-23T12:11:03;97182.44;;;10.42;62.53
13241;BME280;6687;47.790;7.322;2024-02-23T12:13:30;97189.41;;;10.04;59.25
13241;BME280;6687;47.790;7.322;2024-02-23T12:15:57;97184.03;;;10.46;61.43
13241;BME280;6687;47.790;7.322;2024-02-23T12:18:25;97180.44;;;10.85;70.00
13241;BME280;6687;47.790;7.322;2024-02-23T12:20:53;97179.84;;;10.75;66.91
13241;BME280;6687;47.790;7.322;2024-02-23T12:23:19;97179.22;;;10.97;73.27
13241;BME280;6687;47.790;7.322;2024-02-23T12:25:56;97171.06;;;11.10;70.23
13241;BME280;6687;47.790;7.322;2024-02-23T12:28:24;97178.09;;;11.05;71.50
13241;BME280;6687;47.790;7.322;2024-02-23T12:31:09;97175.69;;;11.29;76.43
13241;BME280;6687;47.790;7.322;2024-02-23T12:33:37;97173.19;;;10.96;62.70
13241;BME280;6687;47.790;7.322;2024-02-23T12:36:06;97167.97;;;11.27;69.47
13241;BME280;6687;47.790;7.322;2024-02-23T12:38:33;97161.88;;;11.28;68.86
13241;BME280;6687;47.790;7.322;2024-02-23T12:41:00;97160.94;;;11.59;72.36
13241;BME280;6687;47.790;7.322;2024-02-23T12:43:28;97154.19;;;11.82;70.99
13241;BME280;6687;47.790;7.322;2024-02-23T12:45:55;97155.06;;;11.54;58.42
13241;BME280;6687;47.790;7.322;2024-02-23T12:48:22;97163.34;;;11.65;64.08
13241;BME280;6687;47.790;7.322;2024-02-23T12:50:51;97159.91;;;11.65;59.74
13241;BME280;6687;47.790;7.322;2024-02-23T12:53:31;97152.09;;;11.93;72.05
13241;BME280;6687;47.790;7.322;2024-02-23T12:55:59;97151.81;;;12.02;72.63
13241;BME280;6687;47.790;7.322;2024-02-23T12:58:26;97152.59;;;12.04;66.89
13241;BME280;6687;47.790;7.322;2024-02-23T13:00:52;97148.00;;;12.12;62.82
13241;BME280;6687;47.790;7.322;2024-02-23T13:03:19;97151.84;;;11.74;55.30
13241;BME280;6687;47.790;7.322;2024-02-23T13:05:46;97149.09;;;11.79;54.47
13241;BME280;6687;47.790;7.322;2024-02-23T13:08:14;97151.25;;;11.92;54.89
13241;BME280;6687;47.790;7.322;2024-02-23T13:10:41;97149.78;;;11.84;53.77
13241;BME280;6687;47.790;7.322;2024-02-23T13:13:08;97148.28;;;12.03;53.15
13241;BME280;6687;47.790;7.322;2024-02-23T13:15:34;97134.81;;;12.19;54.42
13241;BME280;6687;47.790;7.322;2024-02-23T13:18:02;97139.50;;;12.07;51.59
13241;BME280;6687;47.790;7.322;2024-02-23T13:20:29;97136.16;;;11.77;49.15
13241;BME280;6687;47.790;7.322;2024-02-23T13:22:56;97132.44;;;12.38;55.86
13241;BME280;6687;47.790;7.322;2024-02-23T13:25:24;97135.72;;;12.18;55.48
13241;BME280;6687;47.790;7.322;2024-02-23T13:27:51;97134.16;;;12.37;56.11
13241;BME280;6687;47.790;7.322;2024-02-23T13:30:18;97125.66;;;12.08;50.60
13241;BME280;6687;47.790;7.322;2024-02-23T13:32:45;97120.69;;;12.51;52.06
13241;BME280;6687;47.790;7.322;2024-02-23T13:35:11;97119.69;;;12.55;62.33
13241;BME280;6687;47.790;7.322;2024-02-23T13:37:39;97119.16;;;12.45;54.42
13241;BME280;6687;47.790;7.322;2024-02-23T13:40:08;97114.25;;;12.61;64.59
13241;BME280;6687;47.790;7.322;2024-02-23T13:42:36;97114.41;;;12.33;55.80
13241;BME280;6687;47.790;7.322;2024-02-23T13:45:05;97111.88;;;12.55;60.11
13241;BME280;6687;47.790;7.322;2024-02-23T13:47:32;97108.34;;;12.58;56.61
13241;BME280;6687;47.790;7.322;2024-02-23T13:49:59;97107.31;;;12.13;51.26
13241;BME280;6687;47.790;7.322;2024-02-23T13:52:26;97101.97;;;12.41;57.25
13241;BME280;6687;47.790;7.322;2024-02-23T13:54:53;97111.81;;;12.33;51.56
13241;BME280;6687;47.790;7.322;2024-02-23T13:57:19;97101.28;;;12.12;50.03
13241;BME280;6687;47.790;7.322;2024-02-23T13:59:48;97106.97;;;11.97;49.07
13241;BME280;6687;47.790;7.322;2024-02-23T14:02:15;97103.91;;;12.11;49.84
13241;BME280;6687;47.790;7.322;2024-02-23T14:04:44;97102.22;;;12.59;64.87
13241;BME280;6687;47.790;7.322;2024-02-23T14:07:12;97103.25;;;12.54;67.09
13241;BME280;6687;47.790;7.322;2024-02-23T14:09:39;97103.47;;;12.23;62.12
13241;BME280;6687;47.790;7.322;2024-02-23T14:12:06;97103.78;;;12.16;58.05
13241;BME280;6687;47.790;7.322;2024-02-23T14:14:33;97097.34;;;12.26;51.93
13241;BME280;6687;47.790;7.322;2024-02-23T14:17:01;97093.88;;;12.50;59.39
13241;BME280;6687;47.790;7.322;2024-02-23T14:19:29;97097.44;;;12.23;52.86
13241;BME280;6687;47.790;7.322;2024-02-23T14:21:56;97089.78;;;12.20;51.38
13241;BME280;6687;47.790;7.322;2024-02-23T14:24:22;97087.34;;;12.64;62.79
13241;BME280;6687;47.790;7.322;2024-02-23T14:26:49;97089.75;;;12.68;61.32
13241;BME280;6687;47.790;7.322;2024-02-23T14:29:16;97084.19;;;12.56;58.53
13241;BME280;6687;47.790;7.322;2024-02-23T14:31:43;97086.38;;;12.66;55.13
13241;BME280;6687;47.790;7.322;2024-02-23T14:34:11;97090.00;;;12.37;51.17
13241;BME280;6687;47.790;7.322;2024-02-23T14:36:38;97074.81;;;12.01;49.96
13241;BME280;6687;47.790;7.322;2024-02-23T14:39:04;97084.50;;;12.46;55.31
13241;BME280;6687;47.790;7.322;2024-02-23T14:41:31;97079.03;;;12.78;61.98
13241;BME280;6687;47.790;7.322;2024-02-23T14:43:58;97075.13;;;12.66;60.88
13241;BME280;6687;47.790;7.322;2024-02-23T14:46:24;97077.50;;;12.72;55.43
13241;BME280;6687;47.790;7.322;2024-02-23T14:48:51;97076.81;;;12.43;54.90
13241;BME280;6687;47.790;7.322;2024-02-23T14:51:20;97075.53;;;12.06;51.97
13241;BME280;6687;47.790;7.322;2024-02-23T14:53:47;97071.16;;;12.32;52.68
13241;BME280;6687;47.790;7.322;2024-02-23T14:56:14;97073.91;;;12.27;55.12
13241;BME280;6687;47.790;7.322;2024-02-23T14:58:40;97076.38;;;12.07;55.54
13241;BME280;6687;47.790;7.322;2024-02-23T15:01:07;97067.44;;;12.16;56.12
13241;BME280;6687;47.790;7.322;2024-02-23T15:03:34;97065.84;;;12.35;58.38
13241;BME280;6687;47.790;7.322;2024-02-23T15:06:01;97064.84;;;12.16;55.14
13241;BME280;6687;47.790;7.322;2024-02-23T15:08:29;97065.16;;;12.06;52.15
13241;BME280;6687;47.790;7.322;2024-02-23T15:10:56;97062.13;;;12.19;57.26
13241;BME280;6687;47.790;7.322;2024-02-23T15:13:23;97057.03;;;12.16;54.01
13241;BME280;6687;47.790;7.322;2024-02-23T15:15:50;97061.91;;;12.48;63.99
13241;BME280;6687;47.790;7.322;2024-02-23T15:18:17;97061.91;;;12.48;61.93
13241;BME280;6687;47.790;7.322;2024-02-23T15:20:44;97061.75;;;12.04;52.64
13241;BME280;6687;47.790;7.322;2024-02-23T15:23:11;97063.19;;;11.86;50.64
13241;BME280;6687;47.790;7.322;2024-02-23T15:25:39;97058.56;;;11.69;50.66
13241;BME280;6687;47.790;7.322;2024-02-23T15:28:06;97052.69;;;11.91;52.26
13241;BME280;6687;47.790;7.322;2024-02-23T15:30:33;97048.84;;;11.76;52.69
13241;BME280;6687;47.790;7.322;2024-02-23T15:32:59;97049.13;;;12.19;55.12
13241;BME280;6687;47.790;7.322;2024-02-23T15:35:26;97044.91;;;11.91;53.58
13241;BME280;6687;47.790;7.322;2024-02-23T15:37:53;97051.06;;;12.37;64.33
13241;BME280;6687;47.790;7.322;2024-02-23T15:40:19;97044.75;;;12.44;67.33
13241;BME280;6687;47.790;7.322;2024-02-23T15:42:47;97039.59;;;12.43;66.03
13241;BME280;6687;47.790;7.322;2024-02-23T15:45:15;97048.19;;;11.96;55.51
13241;BME280;6687;47.790;7.322;2024-02-23T15:47:42;97053.00;;;12.32;62.25
13241;BME280;6687;47.790;7.322;2024-02-23T15:50:09;97041.81;;;12.30;61.58
13241;BME280;6687;47.790;7.322;2024-02-23T15:52:36;97042.38;;;11.63;54.06
13241;BME280;6687;47.790;7.322;2024-02-23T15:55:03;97039.19;;;12.06;58.68
13241;BME280;6687;47.790;7.322;2024-02-23T15:57:30;97037.53;;;12.52;68.20
13241;BME280;6687;47.790;7.322;2024-02-23T15:59:58;97044.41;;;12.53;67.31
13241;BME280;6687;47.790;7.322;2024-02-23T16:02:25;97032.09;;;12.59;69.44
13241;BME280;6687;47.790;7.322;2024-02-23T16:04:52;97034.97;;;12.51;66.33
13241;BME280;6687;47.790;7.322;2024-02-23T16:07:18;97039.66;;;12.41;68.88
13241;BME280;6687;47.790;7.322;2024-02-23T16:09:45;97039.56;;;12.44;65.51
13241;BME280;6687;47.790;7.322;2024-02-23T16:12:13;97049.94;;;12.44;70.19
13241;BME280;6687;47.790;7.322;2024-02-23T16:14:39;97046.31;;;12.25;67.32
13241;BME280;6687;47.790;7.322;2024-02-23T16:17:07;97045.81;;;12.39;67.93
13241;BME280;6687;47.790;7.322;2024-02-23T16:19:34;97042.41;;;12.13;60.38
13241;BME280;6687;47.790;7.322;2024-02-23T16:22:01;97054.97;;;11.73;54.60
13241;BME280;6687;47.790;7.322;2024-02-23T16:24:28;97045.94;;;11.85;58.17
13241;BME280;6687;47.790;7.322;2024-02-23T16:26:55;97045.47;;;11.99;67.75
13241;BME280;6687;47.790;7.322;2024-02-23T16:29:22;97052.78;;;11.88;60.58
13241;BME280;6687;47.790;7.322;2024-02-23T16:31:49;97052.47;;;11.97;66.54
13241;BME280;6687;47.790;7.322;2024-02-23T16:34:17;97053.25;;;11.99;70.10
13241;BME280;6687;47.790;7.322;2024-02-23T16:36:44;97049.13;;;11.93;70.16
13241;BME280;6687;47.790;7.322;2024-02-23T16:39:10;97051.31;;;11.54;57.89
13241;BME280;6687;47.790;7.322;2024-02-23T16:41:37;97056.09;;;11.66;65.08
13241;BME280;6687;47.790;7.322;2024-02-23T16:44:04;97052.06;;;11.83;65.65
13241;BME280;6687;47.790;7.322;2024-02-23T16:46:31;97049.31;;;11.87;68.06
13241;BME280;6687;47.790;7.322;2024-02-23T16:48:58;97050.28;;;11.85;70.67
13241;BME280;6687;47.790;7.322;2024-02-23T16:51:28;97047.97;;;11.75;71.33
13241;BME280;6687;47.790;7.322;2024-02-23T16:53:55;97060.94;;;11.75;72.34
13241;BME280;6687;47.790;7.322;2024-02-23T16:56:21;97057.03;;;11.64;69.44
13241;BME280;6687;47.790;7.322;2024-02-23T16:58:51;97061.06;;;11.72;72.32
13241;BME280;6687;47.790;7.322;2024-02-23T17:01:17;97065.66;;;11.64;71.46
13241;BME280;6687;47.790;7.322;2024-02-23T17:03:44;97058.78;;;11.63;72.14
13241;BME280;6687;47.790;7.322;2024-02-23T17:06:11;97056.38;;;11.57;71.97
13241;BME280;6687;47.790;7.322;2024-02-23T17:08:39;97057.69;;;11.44;70.80
13241;BME280;6687;47.790;7.322;2024-02-23T17:11:06;97068.97;;;11.43;72.81
13241;BME280;6687;47.790;7.322;2024-02-23T17:13:33;97061.34;;;11.38;73.88
13241;BME280;6687;47.790;7.322;2024-02-23T17:15:59;97055.59;;;11.28;73.20
13241;BME280;6687;47.790;7.322;2024-02-23T17:18:26;97053.88;;;11.27;75.06
13241;BME280;6687;47.790;7.322;2024-02-23T17:20:53;97063.47;;;11.25;76.89
13241;BME280;6687;47.790;7.322;2024-02-23T17:23:20;97062.78;;;11.20;77.75
13241;BME280;6687;47.790;7.322;2024-02-23T17:25:48;97065.44;;;11.17;78.23
13241;BME280;6687;47.790;7.322;2024-02-23T17:28:15;97059.53;;;11.12;78.79
13241;BME280;6687;47.790;7.322;2024-02-23T17:30:42;97073.41;;;11.11;79.30
13241;BME280;6687;47.790;7.322;2024-02-23T17:33:08;97068.50;;;11.02;78.06
13241;BME280;6687;47.790;7.322;2024-02-23T17:35:35;97066.88;;;10.99;78.29
13241;BME280;6687;47.790;7.322;2024-02-23T17:38:02;97075.47;;;11.00;78.57
13241;BME280;6687;47.790;7.322;2024-02-23T17:40:29;97075.47;;;11.00;79.33
13241;BME280;6687;47.790;7.322;2024-02-23T17:42:58;97069.44;;;10.99;80.02
13241;BME280;6687;47.790;7.322;2024-02-23T17:45:24;97078.84;;;11.03;81.04
13241;BME280;6687;47.790;7.322;2024-02-23T17:47:51;97078.97;;;10.99;81.08
13241;BME280;6687;47.790;7.322;2024-02-23T17:50:19;97071.25;;;10.97;81.74
13241;BME280;6687;47.790;7.322;2024-02-23T17:52:46;97068.63;;;10.99;82.42
13241;BME280;6687;47.790;7.322;2024-02-23T17:55:13;97072.03;;;10.99;82.73
13241;BME280;6687;47.790;7.322;2024-02-23T17:57:40;97078.25;;;10.93;81.92
13241;BME280;6687;47.790;7.322;2024-02-23T18:00:09;97073.97;;;10.92;82.04
13241;BME280;6687;47.790;7.322;2024-02-23T18:02:35;97079.34;;;10.86;81.09
13241;BME280;6687;47.790;7.322;2024-02-23T18:05:02;97084.69;;;10.80;80.37
13241;BME280;6687;47.790;7.322;2024-02-23T18:07:29;97080.16;;;10.88;82.56
13241;BME280;6687;47.790;7.322;2024-02-23T18:09:56;97084.34;;;10.92;83.22
13241;BME280;6687;47.790;7.322;2024-02-23T18:12:23;97089.53;;;10.92;83.11
13241;BME280;6687;47.790;7.322;2024-02-23T18:14:49;97092.13;;;10.92;82.93
13241;BME280;6687;47.790;7.322;2024-02-23T18:17:17;97099.28;;;10.84;83.04
13241;BME280;6687;47.790;7.322;2024-02-23T18:19:44;97094.72;;;10.92;83.39
13241;BME280;6687;47.790;7.322;2024-02-23T18:22:12;97096.31;;;10.97;83.49
13241;BME280;6687;47.790;7.322;2024-02-23T18:24:39;97094.59;;;10.95;83.14
13241;BME280;6687;47.790;7.322;2024-02-23T18:27:06;97097.34;;;10.91;82.65
13241;BME280;6687;47.790;7.322;2024-02-23T18:29:32;97099.13;;;10.89;82.25
13241;BME280;6687;47.790;7.322;2024-02-23T18:32:00;97095.38;;;10.99;82.39
13241;BME280;6687;47.790;7.322;2024-02-23T18:34:28;97092.06;;;10.94;82.02
13241;BME280;6687;47.790;7.322;2024-02-23T18:36:54;97103.19;;;10.68;78.23
13241;BME280;6687;47.790;7.322;2024-02-23T18:39:21;97108.16;;;10.75;80.86
13241;BME280;6687;47.790;7.322;2024-02-23T18:41:48;97108.66;;;10.88;81.38
13241;BME280;6687;47.790;7.322;2024-02-23T18:44:14;97112.03;;;10.90;82.31
13241;BME280;6687;47.790;7.322;2024-02-23T18:46:42;97098.91;;;10.97;82.08
13241;BME280;6687;47.790;7.322;2024-02-23T18:49:08;97098.94;;;10.95;82.01
13241;BME280;6687;47.790;7.322;2024-02-23T18:51:36;97104.34;;;10.87;81.38
13241;BME280;6687;47.790;7.322;2024-02-23T18:54:04;97098.09;;;10.94;81.59
13241;BME280;6687;47.790;7.322;2024-02-23T18:56:31;97092.19;;;10.89;80.71
13241;BME280;6687;47.790;7.322;2024-02-23T18:58:58;97094.03;;;10.86;80.93
13241;BME280;6687;47.790;7.322;2024-02-23T19:01:25;97095.06;;;10.80;81.01
13241;BME280;6687;47.790;7.322;2024-02-23T19:03:51;97091.59;;;10.81;81.34
13241;BME280;6687;47.790;7.322;2024-02-23T19:06:18;97091.66;;;10.78;81.10
13241;BME280;6687;47.790;7.322;2024-02-23T19:08:46;97087.34;;;10.79;81.08
13241;BME280;6687;47.790;7.322;2024-02-23T19:11:13;97091.81;;;10.73;80.75
13241;BME280;6687;47.790;7.322;2024-02-23T19:13:39;97092.03;;;10.66;81.24
13241;BME280;6687;47.790;7.322;2024-02-23T19:16:11;97096.72;;;10.53;80.12
13241;BME280;6687;47.790;7.322;2024-02-23T19:18:39;97093.31;;;10.51;80.92
13241;BME280;6687;47.790;7.322;2024-02-23T19:21:06;97092.47;;;10.50;81.94
13241;BME280;6687;47.790;7.322;2024-02-23T19:23:33;97101.97;;;10.50;82.57
13241;BME280;6687;47.790;7.322;2024-02-23T19:26:02;97089.16;;;10.45;82.72
13241;BME280;6687;47.790;7.322;2024-02-23T19:28:29;97092.72;;;10.41;82.68
13241;BME280;6687;47.790;7.322;2024-02-23T19:30:55;97097.91;;;10.41;82.57
13241;BME280;6687;47.790;7.322;2024-02-23T19:33:22;97108.31;;;10.38;83.10